sensor_id;sensor_type;location;lat;lon;timestamp;temperature;humidity
66594;DHT22;53450;42.584;23.366;2023-01-31T00:01:38;-1.70;81.44
66594;DHT22;53450;42.584;23.366;2023-01-31T00:04:07;-1.56;81.29
66594;DHT22;53450;42.584;23.366;2023-01-31T00:06:39;-1.47;80.78
66594;DHT22;53450;42.584;23.366;2023-01-31T00:09:06;-1.39;80.69
66594;DHT22;53450;42.584;23.366;2023-01-31T00:11:32;-1.43;80.93
66594;DHT22;53450;42.584;23.366;2023-01-31T00:13:59;-1.40;80.45
66594;DHT22;53450;42.584;23.366;2023-01-31T00:16:26;-1.57;80.34
66594;DHT22;53450;42.584;23.366;2023-01-31T00:19:17;-1.49;80.28
66594;DHT22;53450;42.584;23.366;2023-01-31T00:21:42;-1.49;80.62
66594;DHT22;53450;42.584;23.366;2023-01-31T00:24:11;-1.51;77.16
66594;DHT22;53450;42.584;23.366;2023-01-31T00:26:37;-1.54;76.40
66594;DHT22;53450;42.584;23.366;2023-01-31T00:29:04;-1.57;76.65
66594;DHT22;53450;42.584;23.366;2023-01-31T00:31:31;-1.57;76.21
66594;DHT22;53450;42.584;23.366;2023-01-31T00:33:57;-1.59;75.92
66594;DHT22;53450;42.584;23.366;2023-01-31T00:36:31;-1.61;75.91
66594;DHT22;53450;42.584;23.366;2023-01-31T00:38:59;-1.66;75.74
66594;DHT22;53450;42.584;23.366;2023-01-31T00:41:26;-1.47;76.48
66594;DHT22;53450;42.584;23.366;2023-01-31T00:43:52;-1.44;76.06
66594;DHT22;53450;42.584;23.366;2023-01-31T00:46:18;-1.50;75.73
66594;DHT22;53450;42.584;23.366;2023-01-31T00:48:48;-1.57;75.46
66594;DHT22;53450;42.584;23.366;2023-01-31T00:51:14;-1.63;75.38
66594;DHT22;53450;42.584;23.366;2023-01-31T00:53:39;-1.72;75.55
66594;DHT22;53450;42.584;23.366;2023-01-31T00:56:11;-1.74;76.05
66594;DHT22;53450;42.584;23.366;2023-01-31T00:58:37;-1.78;75.87
66594;DHT22;53450;42.584;23.366;2023-01-31T01:01:11;-1.87;76.39
66594;DHT22;53450;42.584;23.366;2023-01-31T01:03:38;-1.89;76.51
66594;DHT22;53450;42.584;23.366;2023-01-31T01:06:05;-1.82;76.71
66594;DHT22;53450;42.584;23.366;2023-01-31T01:08:31;-1.72;77.50
66594;DHT22;53450;42.584;23.366;2023-01-31T01:11:13;-1.66;77.83
66594;DHT22;53450;42.584;23.366;2023-01-31T01:13:39;-1.57;78.06
66594;DHT22;53450;42.584;23.366;2023-01-31T01:16:07;-1.61;77.21
66594;DHT22;53450;42.584;23.366;2023-01-31T01:18:34;-1.67;77.21
66594;DHT22;53450;42.584;23.366;2023-01-31T01:21:15;-1.78;74.67
66594;DHT22;53450;42.584;23.366;2023-01-31T01:23:41;-1.64;72.32
66594;DHT22;53450;42.584;23.366;2023-01-31T01:26:22;-1.51;69.48
66594;DHT22;53450;42.584;23.366;2023-01-31T01:28:48;-1.46;67.12
66594;DHT22;53450;42.584;23.366;2023-01-31T01:31:15;-1.35;65.07
66594;DHT22;53450;42.584;23.366;2023-01-31T01:33:41;-1.23;62.09
66594;DHT22;53450;42.584;23.366;2023-01-31T01:36:09;-0.95;55.44
66594;DHT22;53450;42.584;23.366;2023-01-31T01:38:38;-0.79;55.53
66594;DHT22;53450;42.584;23.366;2023-01-31T01:41:08;-0.70;55.27
66594;DHT22;53450;42.584;23.366;2023-01-31T01:46:28;-0.67;52.06
66594;DHT22;53450;42.584;23.366;2023-01-31T01:51:36;-0.44;48.91
66594;DHT22;53450;42.584;23.366;2023-01-31T01:54:07;-0.51;48.32
66594;DHT22;53450;42.584;23.366;2023-01-31T01:56:37;-0.44;45.50
66594;DHT22;53450;42.584;23.366;2023-01-31T01:59:11;-0.34;43.08
66594;DHT22;53450;42.584;23.366;2023-01-31T02:01:42;-0.34;43.97
66594;DHT22;53450;42.584;23.366;2023-01-31T02:04:13;-0.33;41.93
66594;DHT22;53450;42.584;23.366;2023-01-31T02:06:42;-0.41;43.78
66594;DHT22;53450;42.584;23.366;2023-01-31T02:09:13;-0.51;47.09
66594;DHT22;53450;42.584;23.366;2023-01-31T02:11:40;-0.53;47.45
66594;DHT22;53450;42.584;23.366;2023-01-31T02:14:08;-0.50;46.83
66594;DHT22;53450;42.584;23.366;2023-01-31T02:16:35;-0.45;45.18
66594;DHT22;53450;42.584;23.366;2023-01-31T02:19:04;-0.31;42.93
66594;DHT22;53450;42.584;23.366;2023-01-31T02:32:38;-0.34;46.17
66594;DHT22;53450;42.584;23.366;2023-01-31T02:40:51;-0.30;49.95
66594;DHT22;53450;42.584;23.366;2023-01-31T02:49:23;-0.12;53.07
66594;DHT22;53450;42.584;23.366;2023-01-31T02:55:17;0.07;58.60
66594;DHT22;53450;42.584;23.366;2023-01-31T02:58:06;0.24;59.16
66594;DHT22;53450;42.584;23.366;2023-01-31T03:00:35;0.12;58.72
66594;DHT22;53450;42.584;23.366;2023-01-31T03:03:05;0.12;60.34
66594;DHT22;53450;42.584;23.366;2023-01-31T03:05:31;0.12;61.02
66594;DHT22;53450;42.584;23.366;2023-01-31T03:07:59;0.07;62.74
66594;DHT22;53450;42.584;23.366;2023-01-31T03:13:25;-0.02;65.07
66594;DHT22;53450;42.584;23.366;2023-01-31T03:21:35;-0.31;67.92
66594;DHT22;53450;42.584;23.366;2023-01-31T03:24:01;-0.40;68.00
66594;DHT22;53450;42.584;23.366;2023-01-31T03:26:29;-0.58;69.88
66594;DHT22;53450;42.584;23.366;2023-01-31T03:28:56;-0.70;70.87
66594;DHT22;53450;42.584;23.366;2023-01-31T03:31:57;-0.85;72.41
66594;DHT22;53450;42.584;23.366;2023-01-31T03:34:24;-0.91;71.72
66594;DHT22;53450;42.584;23.366;2023-01-31T03:37:01;-0.96;72.70
66594;DHT22;53450;42.584;23.366;2023-01-31T03:39:52;-0.99;72.20
66594;DHT22;53450;42.584;23.366;2023-01-31T03:42:27;-1.01;72.37
66594;DHT22;53450;42.584;23.366;2023-01-31T03:45:08;-1.08;73.29
66594;DHT22;53450;42.584;23.366;2023-01-31T03:47:38;-1.06;73.28
66594;DHT22;53450;42.584;23.366;2023-01-31T03:50:35;-1.12;74.03
66594;DHT22;53450;42.584;23.366;2023-01-31T03:53:32;-1.19;74.54
66594;DHT22;53450;42.584;23.366;2023-01-31T03:56:03;-1.22;74.89
66594;DHT22;53450;42.584;23.366;2023-01-31T03:58:38;-1.30;75.64
66594;DHT22;53450;42.584;23.366;2023-01-31T04:01:33;-1.26;75.50
66594;DHT22;53450;42.584;23.366;2023-01-31T04:04:59;-1.28;74.78
66594;DHT22;53450;42.584;23.366;2023-01-31T04:07:28;-1.23;74.35
66594;DHT22;53450;42.584;23.366;2023-01-31T04:09:54;-1.22;74.26
66594;DHT22;53450;42.584;23.366;2023-01-31T04:12:20;-1.28;74.13
66594;DHT22;53450;42.584;23.366;2023-01-31T04:14:45;-1.22;73.90
66594;DHT22;53450;42.584;23.366;2023-01-31T04:17:11;-1.22;73.89
66594;DHT22;53450;42.584;23.366;2023-01-31T04:19:37;-1.20;74.14
66594;DHT22;53450;42.584;23.366;2023-01-31T04:22:02;-1.19;74.22
66594;DHT22;53450;42.584;23.366;2023-01-31T04:24:28;-1.25;74.81
66594;DHT22;53450;42.584;23.366;2023-01-31T04:26:53;-1.29;75.54
66594;DHT22;53450;42.584;23.366;2023-01-31T04:29:19;-1.33;75.99
66594;DHT22;53450;42.584;23.366;2023-01-31T04:31:44;-1.35;76.61
66594;DHT22;53450;42.584;23.366;2023-01-31T04:34:11;-1.38;76.52
66594;DHT22;53450;42.584;23.366;2023-01-31T04:36:36;-1.42;76.55
66594;DHT22;53450;42.584;23.366;2023-01-31T04:39:02;-1.38;75.56
66594;DHT22;53450;42.584;23.366;2023-01-31T04:41:52;-1.43;75.90
66594;DHT22;53450;42.584;23.366;2023-01-31T04:44:43;-1.44;75.95
66594;DHT22;53450;42.584;23.366;2023-01-31T04:47:09;-1.43;75.60
66594;DHT22;53450;42.584;23.366;2023-01-31T04:49:34;-1.43;75.69
66594;DHT22;53450;42.584;23.366;2023-01-31T04:52:00;-1.43;75.13
66594;DHT22;53450;42.584;23.366;2023-01-31T04:54:25;-1.38;74.78
66594;DHT22;53450;42.584;23.366;2023-01-31T04:56:51;-1.36;74.54
66594;DHT22;53450;42.584;23.366;2023-01-31T04:59:16;-1.36;74.69
66594;DHT22;53450;42.584;23.366;2023-01-31T05:01:42;-1.39;75.01
66594;DHT22;53450;42.584;23.366;2023-01-31T05:04:07;-1.42;75.43
66594;DHT22;53450;42.584;23.366;2023-01-31T05:06:33;-1.38;74.97
66594;DHT22;53450;42.584;23.366;2023-01-31T05:09:24;-1.35;73.60
66594;DHT22;53450;42.584;23.366;2023-01-31T05:11:50;-1.33;73.73
66594;DHT22;53450;42.584;23.366;2023-01-31T05:14:16;-1.33;73.45
66594;DHT22;53450;42.584;23.366;2023-01-31T05:16:42;-1.32;73.30
66594;DHT22;53450;42.584;23.366;2023-01-31T05:19:13;-1.32;73.02
66594;DHT22;53450;42.584;23.366;2023-01-31T05:21:38;-1.33;73.49
66594;DHT22;53450;42.584;23.366;2023-01-31T05:24:22;-1.29;73.36
66594;DHT22;53450;42.584;23.366;2023-01-31T05:26:48;-1.29;72.62
66594;DHT22;53450;42.584;23.366;2023-01-31T05:29:16;-1.26;72.07
66594;DHT22;53450;42.584;23.366;2023-01-31T05:31:42;-1.19;72.04
66594;DHT22;53450;42.584;23.366;2023-01-31T05:34:08;-1.17;71.45
66594;DHT22;53450;42.584;23.366;2023-01-31T05:36:34;-1.12;71.13
66594;DHT22;53450;42.584;23.366;2023-01-31T05:39:00;-1.17;71.81
66594;DHT22;53450;42.584;23.366;2023-01-31T05:41:26;-1.15;71.97
66594;DHT22;53450;42.584;23.366;2023-01-31T05:43:51;-1.10;71.74
66594;DHT22;53450;42.584;23.366;2023-01-31T05:46:17;-1.06;71.36
66594;DHT22;53450;42.584;23.366;2023-01-31T05:48:42;-1.05;71.19
66594;DHT22;53450;42.584;23.366;2023-01-31T05:51:08;-0.96;70.46
66594;DHT22;53450;42.584;23.366;2023-01-31T05:53:33;-0.89;70.50
66594;DHT22;53450;42.584;23.366;2023-01-31T05:55:59;-0.91;70.95
66594;DHT22;53450;42.584;23.366;2023-01-31T05:58:24;-0.98;70.30
66594;DHT22;53450;42.584;23.366;2023-01-31T06:00:54;-0.88;70.20
66594;DHT22;53450;42.584;23.366;2023-01-31T06:03:20;-0.81;69.41
66594;DHT22;53450;42.584;23.366;2023-01-31T06:05:46;-0.84;68.79
66594;DHT22;53450;42.584;23.366;2023-01-31T06:08:12;-0.84;68.24
66594;DHT22;53450;42.584;23.366;2023-01-31T06:10:38;-0.87;68.47
66594;DHT22;53450;42.584;23.366;2023-01-31T06:13:04;-0.93;69.65
66594;DHT22;53450;42.584;23.366;2023-01-31T06:15:31;-0.89;71.56
66594;DHT22;53450;42.584;23.366;2023-01-31T06:17:57;-0.88;71.93
66594;DHT22;53450;42.584;23.366;2023-01-31T06:20:24;-0.89;71.45
66594;DHT22;53450;42.584;23.366;2023-01-31T06:22:50;-0.92;72.38
66594;DHT22;53450;42.584;23.366;2023-01-31T06:25:16;-0.87;72.24
66594;DHT22;53450;42.584;23.366;2023-01-31T06:27:42;-0.82;72.51
66594;DHT22;53450;42.584;23.366;2023-01-31T06:30:08;-0.78;72.62
66594;DHT22;53450;42.584;23.366;2023-01-31T06:32:35;-0.81;72.91
66594;DHT22;53450;42.584;23.366;2023-01-31T06:35:02;-0.75;72.85
66594;DHT22;53450;42.584;23.366;2023-01-31T06:37:27;-0.70;72.06
66594;DHT22;53450;42.584;23.366;2023-01-31T06:40:18;-0.68;72.45
66594;DHT22;53450;42.584;23.366;2023-01-31T06:42:44;-0.68;71.89
66594;DHT22;53450;42.584;23.366;2023-01-31T06:45:09;-0.75;72.02
66594;DHT22;53450;42.584;23.366;2023-01-31T06:47:35;-0.68;72.58
66594;DHT22;53450;42.584;23.366;2023-01-31T06:50:01;-0.77;72.67
66594;DHT22;53450;42.584;23.366;2023-01-31T06:52:26;-0.75;72.44
66594;DHT22;53450;42.584;23.366;2023-01-31T06:55:17;-0.79;73.62
66594;DHT22;53450;42.584;23.366;2023-01-31T06:58:07;-0.77;73.38
66594;DHT22;53450;42.584;23.366;2023-01-31T07:00:33;-0.78;73.88
66594;DHT22;53450;42.584;23.366;2023-01-31T07:02:58;-0.68;72.86
66594;DHT22;53450;42.584;23.366;2023-01-31T07:05:24;-0.61;73.20
66594;DHT22;53450;42.584;23.366;2023-01-31T07:07:49;-0.60;73.03
66594;DHT22;53450;42.584;23.366;2023-01-31T07:10:16;-0.56;71.65
66594;DHT22;53450;42.584;23.366;2023-01-31T07:12:42;-0.47;72.01
66594;DHT22;53450;42.584;23.366;2023-01-31T07:15:09;-0.56;71.54
66594;DHT22;53450;42.584;23.366;2023-01-31T07:17:35;-0.49;72.03
66594;DHT22;53450;42.584;23.366;2023-01-31T07:20:00;-0.34;71.37
66594;DHT22;53450;42.584;23.366;2023-01-31T07:22:26;-0.34;70.90
66594;DHT22;53450;42.584;23.366;2023-01-31T07:24:52;-0.29;71.11
66594;DHT22;53450;42.584;23.366;2023-01-31T07:29:50;-0.33;71.54
66594;DHT22;53450;42.584;23.366;2023-01-31T07:32:41;-0.44;72.59
66594;DHT22;53450;42.584;23.366;2023-01-31T07:35:07;-0.57;73.59
66594;DHT22;53450;42.584;23.366;2023-01-31T07:37:32;-0.53;73.60
66594;DHT22;53450;42.584;23.366;2023-01-31T07:39:58;-0.58;74.07
66594;DHT22;53450;42.584;23.366;2023-01-31T07:42:23;-0.62;74.32
66594;DHT22;53450;42.584;23.366;2023-01-31T07:44:49;-0.56;74.56
66594;DHT22;53450;42.584;23.366;2023-01-31T07:47:15;-0.53;75.30
66594;DHT22;53450;42.584;23.366;2023-01-31T07:49:40;-0.51;75.56
66594;DHT22;53450;42.584;23.366;2023-01-31T07:52:06;-0.54;75.73
66594;DHT22;53450;42.584;23.366;2023-01-31T07:54:32;-0.41;75.63
66594;DHT22;53450;42.584;23.366;2023-01-31T07:56:57;-0.40;74.73
66594;DHT22;53450;42.584;23.366;2023-01-31T07:59:23;-0.24;74.91
66594;DHT22;53450;42.584;23.366;2023-01-31T08:02:15;-0.26;74.66
66594;DHT22;53450;42.584;23.366;2023-01-31T08:05:00;-0.33;74.33
66594;DHT22;53450;42.584;23.366;2023-01-31T08:07:51;-0.24;75.06
66594;DHT22;53450;42.584;23.366;2023-01-31T08:11:00;-0.27;74.35
66594;DHT22;53450;42.584;23.366;2023-01-31T08:13:25;-0.13;74.43
66594;DHT22;53450;42.584;23.366;2023-01-31T08:15:52;-0.07;73.83
66594;DHT22;53450;42.584;23.366;2023-01-31T08:18:18;-0.10;73.22
66594;DHT22;53450;42.584;23.366;2023-01-31T08:20:44;-0.07;72.68
66594;DHT22;53450;42.584;23.366;2023-01-31T08:23:09;0.12;72.42
66594;DHT22;53450;42.584;23.366;2023-01-31T08:25:35;0.09;71.73
66594;DHT22;53450;42.584;23.366;2023-01-31T08:28:01;0.15;71.78
66594;DHT22;53450;42.584;23.366;2023-01-31T08:30:27;0.18;72.08
66594;DHT22;53450;42.584;23.366;2023-01-31T08:32:53;0.04;71.14
66594;DHT22;53450;42.584;23.366;2023-01-31T08:35:19;0.04;71.91
66594;DHT22;53450;42.584;23.366;2023-01-31T08:37:45;0.14;72.27
66594;DHT22;53450;42.584;23.366;2023-01-31T08:40:11;0.19;71.33
66594;DHT22;53450;42.584;23.366;2023-01-31T08:42:37;0.35;71.47
66594;DHT22;53450;42.584;23.366;2023-01-31T08:45:03;0.45;70.98
66594;DHT22;53450;42.584;23.366;2023-01-31T08:47:29;0.44;70.73
66594;DHT22;53450;42.584;23.366;2023-01-31T08:49:54;0.50;70.73
66594;DHT22;53450;42.584;23.366;2023-01-31T08:52:20;0.46;71.47
66594;DHT22;53450;42.584;23.366;2023-01-31T08:54:45;0.50;70.59
66594;DHT22;53450;42.584;23.366;2023-01-31T08:57:11;0.41;71.33
66594;DHT22;53450;42.584;23.366;2023-01-31T08:59:36;0.30;71.31
66594;DHT22;53450;42.584;23.366;2023-01-31T09:02:05;0.41;71.69
66594;DHT22;53450;42.584;23.366;2023-01-31T09:04:31;0.33;71.22
66594;DHT22;53450;42.584;23.366;2023-01-31T09:06:57;0.30;69.91
66594;DHT22;53450;42.584;23.366;2023-01-31T09:09:22;0.26;68.37
66594;DHT22;53450;42.584;23.366;2023-01-31T09:11:50;0.19;68.54
66594;DHT22;53450;42.584;23.366;2023-01-31T09:14:16;0.19;68.51
66594;DHT22;53450;42.584;23.366;2023-01-31T09:16:41;0.22;68.68
66594;DHT22;53450;42.584;23.366;2023-01-31T09:19:07;0.33;68.75
66594;DHT22;53450;42.584;23.366;2023-01-31T09:21:32;0.46;67.17
66594;DHT22;53450;42.584;23.366;2023-01-31T09:23:59;0.45;67.77
66594;DHT22;53450;42.584;23.366;2023-01-31T09:26:26;0.46;67.46
66594;DHT22;53450;42.584;23.366;2023-01-31T09:28:52;0.58;66.91
66594;DHT22;53450;42.584;23.366;2023-01-31T09:31:19;0.69;67.18
66594;DHT22;53450;42.584;23.366;2023-01-31T09:33:46;0.75;66.23
66594;DHT22;53450;42.584;23.366;2023-01-31T09:36:14;0.84;66.64
66594;DHT22;53450;42.584;23.366;2023-01-31T09:38:40;0.80;67.11
66594;DHT22;53450;42.584;23.366;2023-01-31T09:41:15;0.69;67.46
66594;DHT22;53450;42.584;23.366;2023-01-31T09:43:46;0.76;67.10
66594;DHT22;53450;42.584;23.366;2023-01-31T09:46:44;0.87;67.14
66594;DHT22;53450;42.584;23.366;2023-01-31T09:49:17;0.94;66.66
66594;DHT22;53450;42.584;23.366;2023-01-31T09:51:48;0.98;66.18
66594;DHT22;53450;42.584;23.366;2023-01-31T09:54:18;1.23;65.22
66594;DHT22;53450;42.584;23.366;2023-01-31T09:56:58;1.21;64.72
66594;DHT22;53450;42.584;23.366;2023-01-31T09:59:33;1.30;64.28
66594;DHT22;53450;42.584;23.366;2023-01-31T10:09:45;1.42;64.72
66594;DHT22;53450;42.584;23.366;2023-01-31T10:12:24;1.62;62.34
66594;DHT22;53450;42.584;23.366;2023-01-31T10:15:10;1.38;63.36
66594;DHT22;53450;42.584;23.366;2023-01-31T10:17:42;1.39;64.19
66594;DHT22;53450;42.584;23.366;2023-01-31T10:20:37;1.41;64.63
66594;DHT22;53450;42.584;23.366;2023-01-31T10:23:10;1.63;65.40
66594;DHT22;53450;42.584;23.366;2023-01-31T10:25:47;1.77;63.86
66594;DHT22;53450;42.584;23.366;2023-01-31T10:31:04;1.68;63.20
66594;DHT22;53450;42.584;23.366;2023-01-31T10:36:21;1.72;61.51
66594;DHT22;53450;42.584;23.366;2023-01-31T10:39:02;1.97;64.26
66594;DHT22;53450;42.584;23.366;2023-01-31T10:46:59;1.85;62.28
66594;DHT22;53450;42.584;23.366;2023-01-31T10:49:26;2.10;61.38
66594;DHT22;53450;42.584;23.366;2023-01-31T10:57:00;2.14;60.40
66594;DHT22;53450;42.584;23.366;2023-01-31T10:59:35;2.35;60.10
66594;DHT22;53450;42.584;23.366;2023-01-31T11:02:02;2.71;61.05
66594;DHT22;53450;42.584;23.366;2023-01-31T11:04:37;2.47;61.33
66594;DHT22;53450;42.584;23.366;2023-01-31T11:07:04;2.61;62.48
66594;DHT22;53450;42.584;23.366;2023-01-31T11:09:38;2.30;63.23
66594;DHT22;53450;42.584;23.366;2023-01-31T11:12:05;1.73;65.60
66594;DHT22;53450;42.584;23.366;2023-01-31T11:14:36;1.66;66.56
66594;DHT22;53450;42.584;23.366;2023-01-31T11:17:21;1.72;66.73
66594;DHT22;53450;42.584;23.366;2023-01-31T11:19:50;1.56;67.42
66594;DHT22;53450;42.584;23.366;2023-01-31T11:22:32;1.51;69.57
66594;DHT22;53450;42.584;23.366;2023-01-31T11:25:01;1.70;68.82
66594;DHT22;53450;42.584;23.366;2023-01-31T11:27:41;1.68;68.86
66594;DHT22;53450;42.584;23.366;2023-01-31T11:32:44;1.65;69.61
66594;DHT22;53450;42.584;23.366;2023-01-31T11:37:57;1.56;69.82
66594;DHT22;53450;42.584;23.366;2023-01-31T11:42:54;1.68;71.45
66594;DHT22;53450;42.584;23.366;2023-01-31T11:45:25;1.56;72.19
66594;DHT22;53450;42.584;23.366;2023-01-31T11:47:57;1.54;72.84
66594;DHT22;53450;42.584;23.366;2023-01-31T11:53:03;1.58;73.84
66594;DHT22;53450;42.584;23.366;2023-01-31T11:55:38;1.44;74.27
66594;DHT22;53450;42.584;23.366;2023-01-31T11:58:21;1.39;74.96
66594;DHT22;53450;42.584;23.366;2023-01-31T12:00:58;1.23;74.55
66594;DHT22;53450;42.584;23.366;2023-01-31T12:03:26;1.21;75.94
66594;DHT22;53450;42.584;23.366;2023-01-31T12:06:07;1.34;76.45
66594;DHT22;53450;42.584;23.366;2023-01-31T12:08:42;1.28;76.15
66594;DHT22;53450;42.584;23.366;2023-01-31T12:13:51;1.10;77.77
66594;DHT22;53450;42.584;23.366;2023-01-31T12:16:23;0.81;76.69
66594;DHT22;53450;42.584;23.366;2023-01-31T12:19:05;1.00;78.02
66594;DHT22;53450;42.584;23.366;2023-01-31T12:24:42;0.75;78.16
66594;DHT22;53450;42.584;23.366;2023-01-31T12:30:23;0.59;77.44
66594;DHT22;53450;42.584;23.366;2023-01-31T12:38:53;0.49;76.39
66594;DHT22;53450;42.584;23.366;2023-01-31T12:44:27;0.76;74.69
66594;DHT22;53450;42.584;23.366;2023-01-31T12:49:50;0.30;74.83
66594;DHT22;53450;42.584;23.366;2023-01-31T12:55:19;0.44;74.59
66594;DHT22;53450;42.584;23.366;2023-01-31T13:00:54;0.53;73.91
66594;DHT22;53450;42.584;23.366;2023-01-31T13:06:25;0.52;73.31
66594;DHT22;53450;42.584;23.366;2023-01-31T13:09:02;0.49;73.31
66594;DHT22;53450;42.584;23.366;2023-01-31T13:14:42;0.37;76.49
66594;DHT22;53450;42.584;23.366;2023-01-31T13:17:12;0.15;79.10
66594;DHT22;53450;42.584;23.366;2023-01-31T13:19:44;-0.05;80.19
66594;DHT22;53450;42.584;23.366;2023-01-31T13:22:26;-0.13;81.40
66594;DHT22;53450;42.584;23.366;2023-01-31T13:25:04;-0.03;79.81
66594;DHT22;53450;42.584;23.366;2023-01-31T13:27:36;0.12;78.50
66594;DHT22;53450;42.584;23.366;2023-01-31T13:30:16;0.25;77.51
66594;DHT22;53450;42.584;23.366;2023-01-31T13:32:48;0.22;77.08
66594;DHT22;53450;42.584;23.366;2023-01-31T13:35:17;0.28;77.72
66594;DHT22;53450;42.584;23.366;2023-01-31T13:37:49;0.30;76.63
66594;DHT22;53450;42.584;23.366;2023-01-31T13:40:23;0.30;76.84
66594;DHT22;53450;42.584;23.366;2023-01-31T13:42:50;0.18;76.09
66594;DHT22;53450;42.584;23.366;2023-01-31T13:45:34;0.19;77.41
66594;DHT22;53450;42.584;23.366;2023-01-31T13:51:13;0.01;76.23
66594;DHT22;53450;42.584;23.366;2023-01-31T13:54:11;0.04;76.67
66594;DHT22;53450;42.584;23.366;2023-01-31T13:57:05;-0.13;76.67
66594;DHT22;53450;42.584;23.366;2023-01-31T13:59:33;-0.20;77.77
66594;DHT22;53450;42.584;23.366;2023-01-31T14:02:01;-0.10;78.15
66594;DHT22;53450;42.584;23.366;2023-01-31T14:04:35;-0.05;78.58
66594;DHT22;53450;42.584;23.366;2023-01-31T14:09:37;-0.14;78.90
66594;DHT22;53450;42.584;23.366;2023-01-31T14:22:34;-0.12;76.47
66594;DHT22;53450;42.584;23.366;2023-01-31T14:25:41;-0.14;76.46
66594;DHT22;53450;42.584;23.366;2023-01-31T14:28:32;-0.13;77.03
66594;DHT22;53450;42.584;23.366;2023-01-31T14:31:11;-0.12;76.72
66594;DHT22;53450;42.584;23.366;2023-01-31T14:33:45;-0.23;77.08
66594;DHT22;53450;42.584;23.366;2023-01-31T14:36:53;-0.30;77.90
66594;DHT22;53450;42.584;23.366;2023-01-31T14:42:33;-0.14;76.86
66594;DHT22;53450;42.584;23.366;2023-01-31T14:45:21;-0.14;76.98
66594;DHT22;53450;42.584;23.366;2023-01-31T14:48:00;-0.26;76.93
66594;DHT22;53450;42.584;23.366;2023-01-31T14:51:15;-0.27;77.16
66594;DHT22;53450;42.584;23.366;2023-01-31T14:58:59;-0.23;77.50
66594;DHT22;53450;42.584;23.366;2023-01-31T15:01:32;-0.19;77.33
66594;DHT22;53450;42.584;23.366;2023-01-31T15:03:59;-0.27;77.04
66594;DHT22;53450;42.584;23.366;2023-01-31T15:06:33;-0.27;76.69
66594;DHT22;53450;42.584;23.366;2023-01-31T15:11:41;-0.41;76.65
66594;DHT22;53450;42.584;23.366;2023-01-31T15:17:24;-0.31;77.54
66594;DHT22;53450;42.584;23.366;2023-01-31T15:20:27;-0.38;77.49
66594;DHT22;53450;42.584;23.366;2023-01-31T15:22:57;-0.43;77.53
66594;DHT22;53450;42.584;23.366;2023-01-31T15:25:35;-0.41;77.47
66594;DHT22;53450;42.584;23.366;2023-01-31T15:28:04;-0.43;77.63
66594;DHT22;53450;42.584;23.366;2023-01-31T15:30:32;-0.45;77.78
66594;DHT22;53450;42.584;23.366;2023-01-31T15:33:21;-0.49;78.14
66594;DHT22;53450;42.584;23.366;2023-01-31T15:36:01;-0.57;78.65
66594;DHT22;53450;42.584;23.366;2023-01-31T15:41:10;-0.57;79.16
66594;DHT22;53450;42.584;23.366;2023-01-31T15:43:40;-0.57;78.87
66594;DHT22;53450;42.584;23.366;2023-01-31T15:46:32;-0.62;78.44
66594;DHT22;53450;42.584;23.366;2023-01-31T15:49:00;-0.61;78.52
66594;DHT22;53450;42.584;23.366;2023-01-31T15:51:26;-0.62;78.14
66594;DHT22;53450;42.584;23.366;2023-01-31T15:54:03;-0.60;77.75
66594;DHT22;53450;42.584;23.366;2023-01-31T15:56:31;-0.62;77.59
66594;DHT22;53450;42.584;23.366;2023-01-31T15:58:58;-0.64;77.32
66594;DHT22;53450;42.584;23.366;2023-01-31T16:01:26;-0.62;77.21
66594;DHT22;53450;42.584;23.366;2023-01-31T16:03:57;-0.64;77.07
66594;DHT22;53450;42.584;23.366;2023-01-31T16:06:25;-0.68;77.30
66594;DHT22;53450;42.584;23.366;2023-01-31T16:08:54;-0.65;77.11
66594;DHT22;53450;42.584;23.366;2023-01-31T16:11:20;-0.68;76.77
66594;DHT22;53450;42.584;23.366;2023-01-31T16:13:46;-0.65;76.96
66594;DHT22;53450;42.584;23.366;2023-01-31T16:16:13;-0.61;76.40
66594;DHT22;53450;42.584;23.366;2023-01-31T16:18:42;-0.62;76.92
66594;DHT22;53450;42.584;23.366;2023-01-31T16:24:17;-0.58;77.12
66594;DHT22;53450;42.584;23.366;2023-01-31T16:26:57;-0.54;77.07
66594;DHT22;53450;42.584;23.366;2023-01-31T16:29:39;-0.57;76.70
66594;DHT22;53450;42.584;23.366;2023-01-31T16:32:23;-0.60;76.98
66594;DHT22;53450;42.584;23.366;2023-01-31T16:34:56;-0.58;77.06
66594;DHT22;53450;42.584;23.366;2023-01-31T16:38:15;-0.62;76.91
66594;DHT22;53450;42.584;23.366;2023-01-31T16:41:07;-0.68;77.29
66594;DHT22;53450;42.584;23.366;2023-01-31T16:43:40;-0.62;77.46
66594;DHT22;53450;42.584;23.366;2023-01-31T16:46:34;-0.60;77.63
66594;DHT22;53450;42.584;23.366;2023-01-31T16:49:02;-0.65;77.25
66594;DHT22;53450;42.584;23.366;2023-01-31T16:56:38;-0.68;77.38
66594;DHT22;53450;42.584;23.366;2023-01-31T17:04:18;-0.71;77.37
66594;DHT22;53450;42.584;23.366;2023-01-31T17:06:50;-0.72;77.68
66594;DHT22;53450;42.584;23.366;2023-01-31T17:09:54;-0.74;77.93
66594;DHT22;53450;42.584;23.366;2023-01-31T17:12:45;-0.71;78.18
66594;DHT22;53450;42.584;23.366;2023-01-31T17:15:16;-0.71;78.12
66594;DHT22;53450;42.584;23.366;2023-01-31T17:17:42;-0.74;78.08
66594;DHT22;53450;42.584;23.366;2023-01-31T17:20:08;-0.81;77.97
66594;DHT22;53450;42.584;23.366;2023-01-31T17:22:34;-0.84;78.08
66594;DHT22;53450;42.584;23.366;2023-01-31T17:25:00;-0.85;77.87
66594;DHT22;53450;42.584;23.366;2023-01-31T17:27:26;-0.84;77.82
66594;DHT22;53450;42.584;23.366;2023-01-31T17:29:51;-0.78;77.58
66594;DHT22;53450;42.584;23.366;2023-01-31T17:32:19;-0.78;77.77
66594;DHT22;53450;42.584;23.366;2023-01-31T17:34:46;-0.85;77.62
66594;DHT22;53450;42.584;23.366;2023-01-31T17:37:14;-0.82;77.96
66594;DHT22;53450;42.584;23.366;2023-01-31T17:39:39;-0.79;78.03
66594;DHT22;53450;42.584;23.366;2023-01-31T17:42:09;-0.82;77.35
66594;DHT22;53450;42.584;23.366;2023-01-31T17:44:38;-0.74;77.29
66594;DHT22;53450;42.584;23.366;2023-01-31T17:47:04;-0.77;76.74
66594;DHT22;53450;42.584;23.366;2023-01-31T17:49:29;-0.74;76.95
66594;DHT22;53450;42.584;23.366;2023-01-31T17:51:55;-0.70;76.70
66594;DHT22;53450;42.584;23.366;2023-01-31T17:54:21;-0.75;76.42
66594;DHT22;53450;42.584;23.366;2023-01-31T17:56:47;-0.75;76.76
66594;DHT22;53450;42.584;23.366;2023-01-31T17:59:13;-0.81;77.19
66594;DHT22;53450;42.584;23.366;2023-01-31T18:01:38;-0.79;76.40
66594;DHT22;53450;42.584;23.366;2023-01-31T18:04:10;-0.74;76.33
66594;DHT22;53450;42.584;23.366;2023-01-31T18:06:36;-0.75;76.32
66594;DHT22;53450;42.584;23.366;2023-01-31T18:09:04;-0.75;76.04
66594;DHT22;53450;42.584;23.366;2023-01-31T18:11:29;-0.74;75.50
66594;DHT22;53450;42.584;23.366;2023-01-31T18:27:53;-0.75;76.72
66594;DHT22;53450;42.584;23.366;2023-01-31T18:30:18;-0.78;76.48
66594;DHT22;53450;42.584;23.366;2023-01-31T18:32:44;-0.74;76.76
66594;DHT22;53450;42.584;23.366;2023-01-31T18:35:09;-0.72;77.00
66594;DHT22;53450;42.584;23.366;2023-01-31T18:38:00;-0.81;76.82